Time;durP1;ratioP1;P1;durP2;ratioP2;P2;SDS_P1;SDS_P2;PMS_P1;PMS_P2;Temp;Humidity;BMP_temperature;BMP_pressure;BME280_temperature;BME280_humidity;BME280_pressure;Samples;Min_cycle;Max_cycle;Signal;HPM_P1;HPM_P2
2021/12/23 00:01:27;;;;;;;12.43;8.15;;;;;;;1.21;100.00;101467.09;4821840;29;20038;-77
2021/12/23 00:03:52;;;;;;;9.90;7.55;;;;;;;1.27;100.00;101477.22;4806557;29;20037;-77
2021/12/23 00:06:17;;;;;;;9.32;7.40;;;;;;;1.28;100.00;101463.84;4832152;29;20033;-77
2021/12/23 00:08:43;;;;;;;10.75;7.18;;;;;;;1.27;100.00;101462.16;4824545;29;20042;-77
2021/12/23 00:11:08;;;;;;;10.70;7.32;;;;;;;1.26;100.00;101451.66;4825199;29;20462;-77
2021/12/23 00:13:36;;;;;;;9.07;6.95;;;;;;;1.27;100.00;101453.38;4820395;29;20091;-77
2021/12/23 00:16:04;;;;;;;9.23;6.88;;;;;;;1.28;100.00;101442.63;4822710;29;20038;-77
2021/12/23 00:23:47;;;;;;;9.27;6.78;;;;;;;1.20;100.00;101429.16;4825453;29;20349;-77
2021/12/23 00:26:13;;;;;;;8.90;6.38;;;;;;;1.11;100.00;101408.69;4821780;29;20038;-77
2021/12/23 00:28:38;;;;;;;9.82;6.75;;;;;;;1.29;100.00;101446.13;4823323;29;20038;-77
2021/12/23 00:31:05;;;;;;;7.95;6.03;;;;;;;1.27;100.00;101434.81;4823457;29;20450;-77
2021/12/23 00:33:31;;;;;;;8.00;6.13;;;;;;;1.19;100.00;101422.16;4824999;29;20450;-77
2021/12/23 00:35:57;;;;;;;8.38;6.35;;;;;;;1.30;100.00;101440.72;4808691;29;20103;-77
2021/12/23 00:38:29;;;;;;;9.93;6.22;;;;;;;1.30;100.00;101440.72;4827767;29;20060;-77
2021/12/23 00:40:55;;;;;;;11.13;6.30;;;;;;;1.12;100.00;101416.50;4826154;29;20038;-77
2021/12/23 00:43:21;;;;;;;9.13;6.15;;;;;;;1.28;100.00;101428.53;4807663;29;20030;-77
2021/12/23 00:45:48;;;;;;;7.95;6.03;;;;;;;1.28;100.00;101432.03;4822905;29;20058;-77
2021/12/23 00:48:14;;;;;;;8.30;6.30;;;;;;;1.25;100.00;101419.00;4824189;29;20065;-77
2021/12/23 00:50:40;;;;;;;8.50;6.10;;;;;;;1.27;100.00;101418.91;4822521;29;20027;-77
2021/12/23 00:53:08;;;;;;;9.43;6.30;;;;;;;1.30;100.00;101419.50;4808210;29;20037;-77
2021/12/23 00:55:33;;;;;;;8.23;5.70;;;;;;;1.26;100.00;101410.13;4824298;29;20092;-77
2021/12/23 00:58:00;;;;;;;10.93;6.13;;;;;;;1.32;100.00;101411.41;4825122;29;20508;-77
2021/12/23 01:00:26;;;;;;;8.23;5.95;;;;;;;1.22;100.00;101391.91;4823068;29;20040;-77
2021/12/23 01:02:51;;;;;;;8.80;6.03;;;;;;;1.10;100.00;101377.84;4822427;29;20180;-77
2021/12/23 01:05:20;;;;;;;9.00;6.32;;;;;;;1.29;100.00;101401.91;4808389;29;20491;-77
2021/12/23 01:07:46;;;;;;;10.48;6.32;;;;;;;1.31;100.00;101399.13;4823928;29;20094;-77
2021/12/23 01:10:12;;;;;;;9.25;6.57;;;;;;;1.29;100.00;101399.25;4821079;29;20505;-77
2021/12/23 01:12:45;;;;;;;8.48;6.35;;;;;;;1.29;100.00;101401.91;4824470;29;20031;-77
2021/12/23 01:20:25;;;;;;;10.82;7.07;;;;;;;1.25;100.00;101373.09;4822663;29;20041;-77
2021/12/23 01:22:52;;;;;;;10.60;7.15;;;;;;;1.28;100.00;101384.31;4821917;29;20041;-77
2021/12/23 01:25:17;;;;;;;12.50;7.30;;;;;;;1.28;100.00;101373.69;4822900;29;20377;-78
2021/12/23 01:27:43;;;;;;;11.45;7.75;;;;;;;1.29;100.00;101374.53;4821282;29;20045;-77
2021/12/23 01:30:09;;;;;;;9.95;6.97;;;;;;;1.28;100.00;101368.41;4825272;29;20038;-77
2021/12/23 01:32:34;;;;;;;11.60;7.68;;;;;;;1.21;100.00;101337.22;4826012;29;20468;-77
2021/12/23 01:34:59;;;;;;;10.98;7.35;;;;;;;1.26;100.00;101342.97;4827796;29;20065;-78
2021/12/23 01:37:25;;;;;;;12.25;7.97;;;;;;;1.29;100.00;101338.28;4810744;29;20107;-77
2021/12/23 01:39:50;;;;;;;11.35;7.40;;;;;;;1.29;100.00;101335.63;4810780;29;20060;-77
2021/12/23 01:42:16;;;;;;;13.15;7.03;;;;;;;1.22;100.00;101315.88;4809423;29;20038;-77
2021/12/23 01:44:41;;;;;;;9.63;7.38;;;;;;;1.31;100.00;101322.25;4810788;29;20026;-77
2021/12/23 01:47:07;;;;;;;9.75;6.80;;;;;;;1.32;100.00;101316.78;4825729;29;20103;-77
2021/12/23 01:49:32;;;;;;;10.75;7.07;;;;;;;1.33;100.00;101321.16;4825077;29;20042;-77
2021/12/23 01:51:58;;;;;;;9.88;6.53;;;;;;;1.35;100.00;101316.53;4811422;29;20042;-78
2021/12/23 01:54:23;;;;;;;9.20;6.55;;;;;;;1.35;100.00;101311.25;4823924;29;20035;-77
2021/12/23 01:56:50;;;;;;;9.40;6.80;;;;;;;1.37;100.00;101304.00;4825609;29;20440;-77
2021/12/23 01:59:15;;;;;;;9.48;6.63;;;;;;;1.38;100.00;101302.19;4826698;29;20058;-77
2021/12/23 02:01:41;;;;;;;8.73;7.03;;;;;;;1.39;100.00;101299.44;4825095;29;20039;-78
2021/12/23 02:04:07;;;;;;;12.48;7.50;;;;;;;1.40;100.00;101306.41;4825939;29;20091;-77
2021/12/23 02:06:33;;;;;;;9.30;6.80;;;;;;;1.25;100.00;101275.84;4808969;29;20030;-77
2021/12/23 02:08:58;;;;;;;15.82;6.90;;;;;;;1.32;100.00;101278.84;4824473;29;20432;-77
2021/12/23 02:11:24;;;;;;;12.07;7.00;;;;;;;1.41;100.00;101292.19;4825782;29;20433;-77
2021/12/23 02:13:50;;;;;;;10.32;7.68;;;;;;;1.26;100.00;101268.75;4825126;29;20030;-77
2021/12/23 02:16:16;;;;;;;11.57;7.68;;;;;;;1.35;100.00;101282.06;4826157;29;20034;-77
2021/12/23 02:18:41;;;;;;;11.32;7.80;;;;;;;1.34;100.00;101272.44;4823520;29;20107;-77
2021/12/23 02:21:07;;;;;;;11.05;8.40;;;;;;;1.37;100.00;101269.53;4825811;29;20035;-77
2021/12/23 02:23:33;;;;;;;10.88;8.65;;;;;;;1.43;100.00;101270.84;4825676;29;20109;-78
2021/12/23 02:25:59;;;;;;;14.75;8.82;;;;;;;1.38;100.00;101257.97;4826583;29;20038;-77
2021/12/23 02:28:26;;;;;;;12.38;8.35;;;;;;;1.44;100.00;101264.56;4825842;29;20045;-77
2021/12/23 02:30:52;;;;;;;14.10;9.77;;;;;;;1.39;100.00;101249.06;4825761;29;20026;-78
2021/12/23 02:33:27;;;;;;;12.80;8.77;;;;;;;1.48;100.00;101251.88;4825133;29;20043;-77
2021/12/23 02:35:57;;;;;;;13.23;8.82;;;;;;;1.38;100.00;101231.44;4826026;29;20036;-77
2021/12/23 02:38:23;;;;;;;11.90;9.10;;;;;;;1.47;100.00;101235.16;4824806;29;20191;-77
2021/12/23 02:40:49;;;;;;;15.27;9.32;;;;;;;1.47;100.00;101224.53;4826181;29;20092;-77
2021/12/23 02:43:19;;;;;;;14.60;9.60;;;;;;;1.48;100.00;101220.06;4823878;29;20037;-77
2021/12/23 02:45:48;;;;;;;14.30;9.73;;;;;;;1.35;100.00;101194.59;4825666;29;20038;-77
2021/12/23 02:48:34;;;;;;;14.68;9.70;;;;;;;1.48;100.00;101212.13;4816126;29;20118;-77
2021/12/23 02:51:02;;;;;;;16.90;10.07;;;;;;;1.48;100.00;101210.28;4825616;29;20121;-78
2021/12/23 02:53:28;;;;;;;15.30;9.85;;;;;;;1.48;100.00;101204.16;4825376;29;20117;-77
2021/12/23 02:55:55;;;;;;;15.30;9.95;;;;;;;1.49;100.00;101200.53;4826471;29;20129;-77
2021/12/23 02:58:20;;;;;;;14.70;9.80;;;;;;;1.49;100.00;101195.22;4823731;29;20065;-78
2021/12/23 03:00:48;;;;;;;14.80;9.68;;;;;;;1.51;100.00;101193.28;4827716;29;20031;-78
2021/12/23 03:03:14;;;;;;;14.60;9.93;;;;;;;1.40;100.00;101175.66;4843039;29;20149;-77
2021/12/23 03:05:45;;;;;;;14.40;9.90;;;;;;;1.48;100.00;101172.34;4823363;29;20441;-77
2021/12/23 03:08:10;;;;;;;14.07;9.68;;;;;;;1.55;100.00;101187.59;4822835;29;20062;-77
2021/12/23 03:10:36;;;;;;;15.48;10.32;;;;;;;1.56;100.00;101180.50;4824833;29;20065;-77
2021/12/23 03:13:01;;;;;;;15.13;10.20;;;;;;;1.45;100.00;101148.72;4824013;29;20041;-78
2021/12/23 03:15:27;;;;;;;14.27;10.02;;;;;;;1.57;100.00;101166.25;4796407;29;20146;-78
2021/12/23 03:17:52;;;;;;;15.85;11.00;;;;;;;1.53;100.00;101156.88;4825248;29;20085;-77
2021/12/23 03:20:17;;;;;;;16.52;10.52;;;;;;;1.46;100.00;101130.06;4823463;29;20645;-77
2021/12/23 03:22:43;;;;;;;16.02;11.07;;;;;;;1.53;100.00;101144.47;4809550;29;20034;-77
2021/12/23 03:25:08;;;;;;;14.82;10.82;;;;;;;1.55;100.00;101141.66;4822874;29;20039;-77
2021/12/23 03:27:34;;;;;;;17.60;11.00;;;;;;;1.61;100.00;101143.78;4820243;29;20038;-77
2021/12/23 03:29:59;;;;;;;16.08;11.27;;;;;;;1.56;100.00;101136.25;4824647;29;20053;-77
2021/12/23 03:32:25;;;;;;;20.42;11.43;;;;;;;1.52;100.00;101123.34;4807433;29;20038;-77
2021/12/23 03:34:51;;;;;;;16.75;11.23;;;;;;;1.56;100.00;101124.78;4815933;29;20034;-77
2021/12/23 03:37:16;;;;;;;15.57;10.70;;;;;;;1.58;100.00;101123.66;4805448;29;20530;-77
2021/12/23 03:39:42;;;;;;;15.85;10.75;;;;;;;1.62;100.00;101121.59;4825077;29;20599;-77
2021/12/23 03:42:07;;;;;;;15.73;10.48;;;;;;;1.64;100.00;101120.50;4822825;29;20462;-77
2021/12/23 03:44:33;;;;;;;14.98;9.95;;;;;;;1.56;100.00;101108.88;4824604;29;20044;-77
2021/12/23 03:46:59;;;;;;;14.00;9.95;;;;;;;1.66;100.00;101120.38;4822881;29;20441;-78
2021/12/23 03:49:24;;;;;;;16.30;11.30;;;;;;;1.73;100.00;101118.03;4826030;29;20030;-77
2021/12/23 03:51:50;;;;;;;15.07;10.52;;;;;;;1.72;100.00;101116.31;4825294;29;20365;-77
2021/12/23 03:54:15;;;;;;;18.50;11.50;;;;;;;1.72;100.00;101114.50;4807085;29;20049;-78
2021/12/23 03:56:41;;;;;;;18.77;10.32;;;;;;;1.57;100.00;101079.56;4822368;29;20027;-77
2021/12/23 03:59:07;;;;;;;17.73;10.57;;;;;;;1.67;100.00;101092.88;4824946;29;20058;-77
2021/12/23 04:01:33;;;;;;;15.52;10.25;;;;;;;1.76;100.00;101109.81;4809102;29;20039;-77
2021/12/23 04:03:59;;;;;;;17.48;10.27;;;;;;;1.65;100.00;101076.22;4820280;29;20338;-78
2021/12/23 04:06:26;;;;;;;17.33;10.20;;;;;;;1.78;100.00;101089.25;4812983;29;20038;-78
2021/12/23 04:08:52;;;;;;;15.85;10.05;;;;;;;1.75;100.00;101070.97;4823775;29;20033;-77
2021/12/23 04:11:18;;;;;;;13.20;8.85;;;;;;;1.77;100.00;101076.97;4825697;29;20046;-77
2021/12/23 04:13:43;;;;;;;11.95;8.50;;;;;;;1.70;100.00;101055.47;4827873;29;20414;-77
2021/12/23 04:16:08;;;;;;;16.98;9.95;;;;;;;1.84;100.00;101072.81;4825519;29;20530;-77
2021/12/23 04:18:34;;;;;;;12.80;8.82;;;;;;;1.85;100.00;101078.00;4822401;29;20095;-78
2021/12/23 04:20:59;;;;;;;13.13;8.70;;;;;;;1.87;100.00;101067.22;4809580;29;20038;-78
2021/12/23 04:23:29;;;;;;;15.75;9.13;;;;;;;1.84;100.00;101062.19;4823067;29;20042;-78
2021/12/23 04:25:55;;;;;;;12.63;8.63;;;;;;;1.91;100.00;101067.78;4826207;29;20041;-77
2021/12/23 04:28:22;;;;;;;14.13;8.15;;;;;;;1.92;100.00;101058.84;4828161;29;20026;-78
2021/12/23 04:30:47;;;;;;;10.00;7.47;;;;;;;1.94;100.00;101056.91;4825756;29;20045;-77
2021/12/23 04:33:13;;;;;;;12.93;8.30;;;;;;;1.86;100.00;101037.19;4808943;29;20381;-78
2021/12/23 04:35:39;;;;;;;14.40;8.60;;;;;;;1.97;100.00;101051.31;4828502;29;20034;-78
2021/12/23 04:38:05;;;;;;;14.43;8.55;;;;;;;1.98;100.00;101045.88;4824147;29;20041;-78
2021/12/23 04:40:34;;;;;;;11.68;7.78;;;;;;;1.99;100.00;101041.44;4830173;29;20042;-78
2021/12/23 04:42:59;;;;;;;16.25;8.50;;;;;;;2.00;100.00;101041.28;4827903;29;20026;-78
2021/12/23 04:45:24;;;;;;;13.18;7.95;;;;;;;1.93;100.00;101023.41;4826255;29;20121;-78
2021/12/23 04:47:50;;;;;;;12.43;8.00;;;;;;;2.04;100.00;101025.91;4807438;29;20041;-77
2021/12/23 04:50:15;;;;;;;12.25;8.15;;;;;;;2.02;100.00;101017.22;4824809;29;20060;-78
2021/12/23 04:52:42;;;;;;;12.40;7.90;;;;;;;2.09;100.00;101031.66;4823089;29;20365;-77
2021/12/23 04:55:09;;;;;;;11.50;7.70;;;;;;;2.12;100.00;101018.09;4823699;29;20035;-77
2021/12/23 04:57:35;;;;;;;15.75;9.13;;;;;;;2.13;100.00;101019.78;4820932;29;20054;-78
2021/12/23 05:00:02;;;;;;;13.45;8.50;;;;;;;2.11;100.00;101003.97;4823303;29;20049;-78
2021/12/23 05:02:27;;;;;;;13.27;8.80;;;;;;;2.19;100.00;101011.25;4823559;29;20049;-77
2021/12/23 05:04:53;;;;;;;13.85;8.90;;;;;;;2.21;100.00;101008.44;4820071;29;20035;-78
2021/12/23 05:07:19;;;;;;;24.45;10.93;;;;;;;2.22;100.00;101000.38;4828331;29;20038;-78
2021/12/23 05:09:45;;;;;;;20.90;10.40;;;;;;;2.21;100.00;101001.31;4824938;29;20120;-77
2021/12/23 05:12:10;;;;;;;16.77;10.13;;;;;;;2.16;100.00;100982.34;4825127;29;20034;-78
2021/12/23 05:14:36;;;;;;;20.25;11.20;;;;;;;2.31;100.00;100996.00;4811835;29;20103;-77
2021/12/23 05:17:01;;;;;;;19.60;11.65;;;;;;;2.26;100.00;100977.84;4826125;29;20113;-78
2021/12/23 05:19:27;;;;;;;24.13;12.77;;;;;;;2.43;100.00;100988.75;4809399;29;20041;-78
2021/12/23 05:21:53;;;;;;;22.05;12.98;;;;;;;2.39;100.00;100972.25;4826575;29;20046;-78
2021/12/23 05:24:19;;;;;;;23.48;13.93;;;;;;;2.42;100.00;100963.13;4823800;29;20055;-77
2021/12/23 05:26:45;;;;;;;24.88;13.80;;;;;;;2.57;100.00;100978.50;4823516;29;20130;-78
2021/12/23 05:29:11;;;;;;;21.17;12.95;;;;;;;2.59;100.00;100973.91;4826366;29;20468;-78
2021/12/23 05:31:38;;;;;;;26.27;13.23;;;;;;;2.67;100.00;100975.81;4822881;29;20160;-77
2021/12/23 05:34:04;;;;;;;20.50;12.50;;;;;;;2.70;100.00;100974.72;4810210;29;20117;-78
2021/12/23 05:36:29;;;;;;;23.40;13.52;;;;;;;2.72;100.00;100970.94;4826520;29;20030;-78
2021/12/23 05:38:55;;;;;;;17.92;10.85;;;;;;;2.71;100.00;100974.53;4824503;29;20034;-78
2021/12/23 05:41:22;;;;;;;20.58;10.45;;;;;;;2.77;100.00;100966.00;4825627;29;20457;-78
2021/12/23 05:43:48;;;;;;;17.58;11.05;;;;;;;2.79;100.00;100974.69;4825043;29;20054;-78
2021/12/23 05:46:13;;;;;;;15.95;11.65;;;;;;;2.83;100.00;100968.09;4826135;29;20118;-78
2021/12/23 05:48:39;;;;;;;17.98;11.73;;;;;;;2.69;100.00;100936.69;4826715;29;20038;-78
2021/12/23 05:51:04;;;;;;;25.45;12.20;;;;;;;2.83;100.00;100954.81;4826753;29;20042;-78
2021/12/23 05:53:30;;;;;;;25.67;12.85;;;;;;;2.76;100.00;100931.63;4828660;29;21070;-78
2021/12/23 05:55:55;;;;;;;22.85;13.07;;;;;;;2.83;100.00;100938.84;4827084;29;20046;-78
2021/12/23 05:58:21;;;;;;;21.75;14.32;;;;;;;2.80;100.00;100933.00;4828272;29;20509;-78
2021/12/23 06:00:46;;;;;;;29.88;15.65;;;;;;;2.91;100.00;100946.09;4825283;29;20045;-78
2021/12/23 06:03:12;;;;;;;30.58;16.33;;;;;;;2.73;100.00;100911.47;4827877;29;20041;-77
2021/12/23 06:05:37;;;;;;;26.33;16.48;;;;;;;2.95;100.00;100936.88;4826478;29;20074;-77
2021/12/23 06:08:03;;;;;;;35.10;16.75;;;;;;;2.82;100.00;100910.63;4811442;29;20366;-78
2021/12/23 06:10:28;;;;;;;27.40;16.40;;;;;;;3.00;100.00;100931.09;4826893;29;20091;-78
2021/12/23 06:12:54;;;;;;;27.95;16.63;;;;;;;2.80;100.00;100895.78;4824972;29;20026;-78
2021/12/23 06:15:20;;;;;;;30.27;17.05;;;;;;;3.02;100.00;100929.16;4826328;29;20335;-78
2021/12/23 06:17:46;;;;;;;33.38;17.75;;;;;;;2.90;100.00;100909.03;4825704;29;20041;-77
2021/12/23 06:20:12;;;;;;;27.02;16.25;;;;;;;2.90;100.00;100904.56;4825547;29;20046;-78
2021/12/23 06:22:38;;;;;;;29.63;16.35;;;;;;;3.00;100.00;100915.97;4827275;29;20046;-77
2021/12/23 06:25:07;;;;;;;27.08;16.17;;;;;;;2.99;100.00;100916.97;4824440;29;20114;-78
2021/12/23 06:27:33;;;;;;;21.77;13.43;;;;;;;3.01;100.00;100911.50;4826234;29;20057;-78
2021/12/23 06:29:58;;;;;;;20.90;13.13;;;;;;;2.96;100.00;100895.16;4825931;29;20543;-78
2021/12/23 06:32:24;;;;;;;20.38;11.68;;;;;;;3.01;100.00;100903.53;4828236;29;20101;-78
2021/12/23 06:34:49;;;;;;;22.00;11.52;;;;;;;2.93;100.00;100885.66;4829867;29;20096;-78
2021/12/23 06:37:15;;;;;;;17.92;11.80;;;;;;;3.06;100.00;100901.28;4823652;29;20035;-78
2021/12/23 06:39:41;;;;;;;19.13;11.02;;;;;;;3.03;100.00;100904.22;4813357;29;20038;-78
2021/12/23 06:42:07;;;;;;;22.40;12.25;;;;;;;3.04;100.00;100895.25;4830691;29;20445;-78
2021/12/23 06:44:33;;;;;;;18.20;11.07;;;;;;;3.07;100.00;100897.63;4829575;29;20046;-78
2021/12/23 06:46:59;;;;;;;19.10;11.18;;;;;;;3.10;100.00;100899.97;4827640;29;20068;-78
2021/12/23 06:49:26;;;;;;;17.95;11.35;;;;;;;3.09;100.00;100900.97;4915460;24;20062;-78
2021/12/23 06:51:51;;;;;;;22.45;11.85;;;;;;;2.89;100.00;100862.19;4779709;30;20035;-78
2021/12/23 06:54:17;;;;;;;20.80;13.25;;;;;;;3.05;100.00;100889.81;4786497;30;20069;-78
2021/12/23 06:56:43;;;;;;;17.95;12.05;;;;;;;3.04;100.00;100888.09;4774622;29;20122;-78
2021/12/23 06:59:09;;;;;;;16.55;11.75;;;;;;;2.93;100.00;100867.06;4789929;30;20035;-77
2021/12/23 07:01:34;;;;;;;34.85;16.33;;;;;;;2.98;100.00;100862.16;4791067;30;20042;-78
2021/12/23 07:06:30;;;;;;;34.80;17.05;;;;;;;3.07;100.00;100876.34;4800598;29;20042;-80
2021/12/23 07:08:56;;;;;;;27.55;16.35;;;;;;;3.05;100.00;100867.72;4807197;29;20037;-78
2021/12/23 07:11:21;;;;;;;27.92;16.63;;;;;;;2.93;100.00;100851.09;4795668;29;20118;-78
2021/12/23 07:13:47;;;;;;;26.35;16.75;;;;;;;2.81;100.00;100829.22;4773698;30;20082;-78
2021/12/23 07:16:12;;;;;;;27.88;18.33;;;;;;;3.09;100.00;100855.78;4786035;29;20039;-77
2021/12/23 07:18:38;;;;;;;32.55;18.25;;;;;;;3.00;100.00;100844.22;4748488;30;20039;-80
2021/12/23 07:21:03;;;;;;;31.98;18.60;;;;;;;3.14;100.00;100863.28;4788086;30;20043;-77
2021/12/23 07:23:29;;;;;;;34.67;20.17;;;;;;;3.15;100.00;100862.34;4774043;30;20035;-79
2021/12/23 07:25:54;;;;;;;29.92;19.10;;;;;;;3.16;100.00;100864.81;4772515;29;20043;-79
2021/12/23 07:28:20;;;;;;;30.35;18.67;;;;;;;3.11;100.00;100850.31;4773337;30;20054;-77
2021/12/23 07:30:47;;;;;;;31.35;19.55;;;;;;;3.02;100.00;100836.94;4770966;29;20382;-77
2021/12/23 07:33:12;;;;;;;32.25;19.27;;;;;;;3.17;100.00;100855.03;4789108;29;20104;-77
2021/12/23 07:35:38;;;;;;;57.58;24.85;;;;;;;3.14;100.00;100853.50;4788916;29;20035;-77
2021/12/23 07:38:03;;;;;;;42.35;22.65;;;;;;;2.83;100.00;100805.16;4787992;29;20435;-77
2021/12/23 07:40:30;;;;;;;48.25;24.52;;;;;;;3.15;100.00;100851.69;4772914;30;20109;-78
2021/12/23 07:43:09;;;;;;;57.28;26.35;;;;;;;3.08;100.00;100827.53;4788955;29;20403;-78
2021/12/23 07:45:35;;;;;;;57.08;26.60;;;;;;;2.99;100.00;100810.66;4790109;29;20094;-79
2021/12/23 07:48:01;;;;;;;48.72;25.17;;;;;;;3.17;100.00;100833.75;4769903;29;20044;-78
2021/12/23 07:50:26;;;;;;;49.85;24.25;;;;;;;3.03;100.00;100811.19;4770121;30;20055;-78
2021/12/23 07:52:52;;;;;;;43.42;23.80;;;;;;;3.17;100.00;100831.09;4772431;30;20047;-78
2021/12/23 07:55:18;;;;;;;42.80;20.85;;;;;;;3.17;100.00;100828.44;4771276;30;20047;-78
2021/12/23 07:57:44;;;;;;;40.40;20.10;;;;;;;3.14;100.00;100826.91;4770626;30;20035;-77
2021/12/23 08:00:10;;;;;;;33.78;18.65;;;;;;;2.99;100.00;100797.34;4754989;30;20136;-78
2021/12/23 08:02:35;;;;;;;38.88;20.05;;;;;;;3.16;100.00;100816.97;4769136;30;20043;-77
2021/12/23 08:05:01;;;;;;;43.83;20.85;;;;;;;3.14;100.00;100818.09;4771089;30;20043;-78
2021/12/23 08:07:26;;;;;;;35.65;20.02;;;;;;;2.91;100.00;100780.47;4770546;30;20039;-78
2021/12/23 08:09:52;;;;;;;36.15;19.00;;;;;;;3.13;100.00;100816.44;4755270;30;20039;-77
2021/12/23 08:12:17;;;;;;;38.40;19.75;;;;;;;3.13;100.00;100811.13;4770139;30;20360;-77
2021/12/23 08:14:43;;;;;;;37.25;18.95;;;;;;;3.13;100.00;100805.81;4770656;30;20460;-78
2021/12/23 08:17:08;;;;;;;37.92;19.88;;;;;;;2.78;100.00;100741.84;4768972;30;20078;-78
2021/12/23 08:19:34;;;;;;;39.78;20.50;;;;;;;3.03;100.00;100773.97;4770454;30;20083;-77
2021/12/23 08:21:59;;;;;;;41.72;20.17;;;;;;;3.12;100.00;100788.19;4770658;30;20066;-77
2021/12/23 08:24:24;;;;;;;36.38;19.02;;;;;;;3.11;100.00;100787.31;4770298;29;20040;-77
2021/12/23 08:26:54;;;;;;;34.60;18.90;;;;;;;3.01;100.00;100779.44;4769799;30;20034;-77
2021/12/23 08:29:20;;;;;;;36.45;19.60;;;;;;;3.09;100.00;100784.00;4769999;30;20353;-77
2021/12/23 08:31:52;;;;;;;40.70;21.13;;;;;;;3.11;100.00;100774.03;4789278;29;20026;-78
2021/12/23 08:34:19;;;;;;;38.92;20.98;;;;;;;3.04;100.00;100765.81;4784878;29;20036;-78
2021/12/23 08:36:44;;;;;;;37.95;20.77;;;;;;;3.13;100.00;100774.72;4768993;30;20028;-78
2021/12/23 08:39:10;;;;;;;39.17;20.88;;;;;;;2.96;100.00;100748.97;4766769;30;21423;-77
2021/12/23 08:41:35;;;;;;;38.83;20.33;;;;;;;3.11;100.00;100767.88;4768550;30;20036;-78
2021/12/23 08:44:01;;;;;;;39.58;19.40;;;;;;;3.09;100.00;100759.25;4769236;30;20035;-77
2021/12/23 08:46:26;;;;;;;33.70;18.08;;;;;;;3.01;100.00;100746.69;4782386;29;20037;-77
2021/12/23 08:48:51;;;;;;;33.47;17.33;;;;;;;3.12;100.00;100754.47;4769977;30;20028;-77
2021/12/23 08:51:17;;;;;;;30.35;17.08;;;;;;;3.10;100.00;100748.44;4771918;29;20073;-78
2021/12/23 08:53:42;;;;;;;35.50;16.55;;;;;;;3.08;100.00;100746.91;4784837;29;20048;-78
2021/12/23 08:56:08;;;;;;;28.98;15.52;;;;;;;3.08;100.00;100739.81;4772170;30;20031;-77
2021/12/23 08:58:37;;;;;;;27.10;16.10;;;;;;;2.81;100.00;100696.38;4772206;30;20058;-78
2021/12/23 09:01:04;;;;;;;33.58;16.70;;;;;;;2.98;100.00;100728.38;4771230;30;20058;-78
2021/12/23 09:03:32;;;;;;;31.38;16.88;;;;;;;3.08;100.00;100734.50;4788639;30;20039;-78
2021/12/23 09:06:00;;;;;;;35.60;16.35;;;;;;;3.07;100.00;100735.44;4786853;30;20028;-77
2021/12/23 09:08:26;;;;;;;25.15;15.77;;;;;;;3.07;100.00;100732.78;4772864;30;20042;-78
2021/12/23 09:10:55;;;;;;;20.60;12.35;;;;;;;3.07;100.00;100724.81;4772302;30;20378;-79
2021/12/23 09:13:21;;;;;;;22.60;11.13;;;;;;;3.07;100.00;100719.50;4787269;29;20035;-78
2021/12/23 09:15:47;;;;;;;18.25;10.02;;;;;;;3.09;100.00;100720.19;4791467;29;20030;-78
2021/12/23 09:18:13;;;;;;;15.15;7.97;;;;;;;2.93;100.00;100683.66;4790118;29;20035;-78
2021/12/23 09:20:38;;;;;;;12.45;7.50;;;;;;;2.91;100.00;100679.47;4778623;30;20036;-78
2021/12/23 09:23:07;;;;;;;12.65;8.02;;;;;;;3.09;100.00;100706.06;4787376;29;20062;-78
2021/12/23 09:25:33;;;;;;;12.50;7.18;;;;;;;3.13;100.00;100700.28;4771783;30;20041;-78
2021/12/23 09:33:31;;;;;;;9.10;6.40;;;;;;;3.17;100.00;100691.00;4753529;29;20130;-78
2021/12/23 09:35:56;;;;;;;11.70;5.75;;;;;;;3.18;100.00;100689.19;4773526;30;20130;-80
2021/12/23 09:38:29;;;;;;;12.77;6.03;;;;;;;3.20;100.00;100685.38;4779255;29;20077;-79
2021/12/23 09:40:59;;;;;;;15.15;6.35;;;;;;;3.11;100.00;100661.53;4806459;29;20517;-79
2021/12/23 09:43:27;;;;;;;12.30;6.38;;;;;;;3.23;100.00;100676.28;4773345;29;20035;-79
2021/12/23 09:45:53;;;;;;;10.63;6.80;;;;;;;3.25;100.00;100674.31;4781547;29;20630;-79
2021/12/23 09:48:21;;;;;;;13.32;7.20;;;;;;;3.23;100.00;100665.63;4781551;29;20049;-80
2021/12/23 09:50:48;;;;;;;10.15;6.53;;;;;;;3.15;100.00;100647.81;4776278;29;20070;-80
2021/12/23 09:53:18;;;;;;;11.75;7.28;;;;;;;3.30;100.00;100653.38;4806471;30;20094;-81
2021/12/23 09:55:44;;;;;;;11.13;6.95;;;;;;;3.00;100.00;100593.53;4801969;29;20090;-80
2021/12/23 09:58:09;;;;;;;13.57;7.43;;;;;;;3.22;100.00;100632.06;4783559;29;20042;-80
2021/12/23 10:00:38;;;;;;;13.25;8.82;;;;;;;3.37;100.00;100649.09;4800748;29;20027;-80
2021/12/23 10:03:06;;;;;;;19.50;11.32;;;;;;;3.38;100.00;100649.94;4798588;29;20122;-79
2021/12/23 10:05:34;;;;;;;20.15;12.48;;;;;;;3.42;100.00;100646.00;4786281;30;20031;-81
2021/12/23 10:08:01;;;;;;;27.67;13.93;;;;;;;3.21;100.00;100606.44;4809256;29;20039;-81
2021/12/23 10:39:34;;;;;;;56.97;30.08;;;;;;;2.27;100.00;100368.06;4946659;24;20145;-80
2021/12/23 10:42:18;;;;;;;56.05;29.38;;;;;;;2.05;100.00;100335.75;5071432;24;1514594;-81
2021/12/23 10:44:56;;;;;;;55.30;28.83;;;;;;;2.11;100.00;100337.75;4830832;29;20043;-81
2021/12/23 10:47:55;;;;;;;59.97;30.20;;;;;;;3.65;100.00;100579.78;4830583;29;20050;-81
2021/12/23 10:58:24;;;;;;;51.25;28.90;;;;;;;3.53;100.00;100564.09;5284598;24;20097;-80
2021/12/23 11:06:24;;;;;;;53.40;28.70;;;;;;;2.09;100.00;100331.78;4841118;29;20034;-80
2021/12/23 11:28:39;;;;;;;56.05;32.80;;;;;;;2.02;100.00;100292.75;4855592;29;20041;-81
2021/12/23 11:42:15;;;;;;;56.65;32.55;;;;;;;3.49;100.00;100504.22;4818253;29;20022;-82
2021/12/23 11:47:12;;;;;;;41.70;24.27;;;;;;;2.08;100.00;100284.97;5416584;24;20069;-80
2021/12/23 11:49:39;;;;;;;43.30;25.05;;;;;;;2.78;100.00;100398.22;4846109;29;20018;-82
2021/12/23 11:52:05;;;;;;;37.50;22.83;;;;;;;2.41;100.00;100334.78;4844778;29;20053;-82
2021/12/23 11:54:32;;;;;;;38.22;23.05;;;;;;;2.84;100.00;100386.97;4842532;29;20034;-82
2021/12/23 11:57:04;;;;;;;39.42;22.48;;;;;;;2.42;100.00;100332.00;4841256;29;20026;-80
2021/12/23 11:59:31;;;;;;;35.03;22.40;;;;;;;2.70;100.00;100359.16;4840592;29;20037;-80
2021/12/23 12:01:58;;;;;;;33.95;21.95;;;;;;;2.23;100.00;100293.22;4829005;29;20052;-81
2021/12/23 12:04:29;;;;;;;35.25;22.13;;;;;;;2.26;100.00;100270.84;4843320;29;20066;-80
2021/12/23 12:06:56;;;;;;;35.53;22.63;;;;;;;2.83;100.00;100359.56;4841113;29;20054;-80
2021/12/23 12:45:35;;;;;;;18.63;11.85;;;;;;;1.57;100.00;100154.06;5661662;24;20104;-81
2021/12/23 13:11:21;;;;;;;24.80;14.20;;;;;;;2.90;100.00;100322.53;4845068;24;20054;-82
2021/12/23 13:13:53;;;;;;;18.95;11.23;;;;;;;2.93;100.00;100321.41;4839507;29;20109;-81
2021/12/23 13:16:23;;;;;;;17.00;10.98;;;;;;;3.03;100.00;100338.88;4825053;29;20038;-82
2021/12/23 13:19:12;;;;;;;40.40;20.20;;;;;;;3.04;100.00;100335.22;4836413;29;20053;-81
2021/12/23 13:21:44;;;;;;;118.93;57.53;;;;;;;2.90;100.00;100306.59;4825477;29;20130;-82
2021/12/23 13:24:11;;;;;;;38.67;19.60;;;;;;;3.05;100.00;100328.91;4824134;29;20089;-81
2021/12/23 13:26:37;;;;;;;24.02;13.40;;;;;;;3.03;100.00;100332.72;4830668;29;20187;-80
2021/12/23 13:29:04;;;;;;;22.20;12.82;;;;;;;2.94;100.00;100318.56;4814658;29;20478;-81
2021/12/23 13:31:31;;;;;;;18.75;11.60;;;;;;;2.95;100.00;100311.44;4823475;29;20054;-80
2021/12/23 13:33:58;;;;;;;24.25;11.65;;;;;;;3.01;100.00;100324.06;4838768;29;20045;-81
2021/12/23 13:36:33;;;;;;;27.88;12.73;;;;;;;2.98;100.00;100325.25;4818575;29;20022;-81
2021/12/23 13:39:01;;;;;;;21.77;12.52;;;;;;;2.77;100.00;100285.81;4811729;29;20449;-81
2021/12/23 13:41:36;;;;;;;21.05;12.43;;;;;;;2.93;100.00;100310.78;4834871;29;20022;-80
2021/12/23 13:44:20;;;;;;;;;;;;;;;2.88;100.00;100307.75;4834491;29;20030;-80
2021/12/23 13:47:09;;;;;;;24.73;12.48;;;;;;;2.85;100.00;100300.09;4830939;29;19916;-81